sensor_id;sensor_type;location;lat;lon;timestamp;P1;durP1;ratioP1;P2;durP2;ratioP2
74963;SDS011;63521;51.900;4.748;2023-07-29T00:02:08;0.47;;;0.47;;
74963;SDS011;63521;51.900;4.748;2023-07-29T00:04:33;0.85;;;0.50;;
74963;SDS011;63521;51.900;4.748;2023-07-29T00:06:59;0.73;;;0.60;;
74963;SDS011;63521;51.900;4.748;2023-07-29T00:09:24;0.57;;;0.55;;
74963;SDS011;63521;51.900;4.748;2023-07-29T00:11:50;0.50;;;0.50;;
74963;SDS011;63521;51.900;4.748;2023-07-29T00:14:15;0.47;;;0.47;;
74963;SDS011;63521;51.900;4.748;2023-07-29T00:16:40;0.77;;;0.60;;
74963;SDS011;63521;51.900;4.748;2023-07-29T00:19:07;0.60;;;0.60;;
74963;SDS011;63521;51.900;4.748;2023-07-29T00:21:32;0.60;;;0.60;;
74963;SDS011;63521;51.900;4.748;2023-07-29T00:23:58;0.77;;;0.50;;
74963;SDS011;63521;51.900;4.748;2023-07-29T00:26:23;1.48;;;0.63;;
74963;SDS011;63521;51.900;4.748;2023-07-29T00:28:51;0.52;;;0.50;;
74963;SDS011;63521;51.900;4.748;2023-07-29T00:31:16;1.23;;;0.73;;
74963;SDS011;63521;51.900;4.748;2023-07-29T00:33:42;0.77;;;0.50;;
74963;SDS011;63521;51.900;4.748;2023-07-29T00:36:08;0.50;;;0.50;;
74963;SDS011;63521;51.900;4.748;2023-07-29T00:38:33;0.63;;;0.63;;
74963;SDS011;63521;51.900;4.748;2023-07-29T00:41:00;0.57;;;0.57;;
74963;SDS011;63521;51.900;4.748;2023-07-29T00:43:25;0.70;;;0.70;;
74963;SDS011;63521;51.900;4.748;2023-07-29T00:45:51;0.77;;;0.60;;
74963;SDS011;63521;51.900;4.748;2023-07-29T00:48:16;0.52;;;0.52;;
74963;SDS011;63521;51.900;4.748;2023-07-29T00:50:42;1.10;;;0.45;;
74963;SDS011;63521;51.900;4.748;2023-07-29T00:53:07;1.08;;;0.68;;
74963;SDS011;63521;51.900;4.748;2023-07-29T00:55:33;1.15;;;0.60;;
74963;SDS011;63521;51.900;4.748;2023-07-29T00:57:59;0.63;;;0.60;;
74963;SDS011;63521;51.900;4.748;2023-07-29T01:00:24;0.57;;;0.57;;
74963;SDS011;63521;51.900;4.748;2023-07-29T01:02:50;0.80;;;0.63;;
74963;SDS011;63521;51.900;4.748;2023-07-29T01:05:17;1.38;;;0.47;;
74963;SDS011;63521;51.900;4.748;2023-07-29T01:10:30;1.25;;;0.68;;
74963;SDS011;63521;51.900;4.748;2023-07-29T01:13:10;2.08;;;0.40;;
74963;SDS011;63521;51.900;4.748;2023-07-29T01:15:55;1.38;;;0.52;;
74963;SDS011;63521;51.900;4.748;2023-07-29T01:18:31;0.70;;;0.70;;
74963;SDS011;63521;51.900;4.748;2023-07-29T01:20:58;0.50;;;0.50;;
74963;SDS011;63521;51.900;4.748;2023-07-29T01:23:31;1.45;;;0.73;;
74963;SDS011;63521;51.900;4.748;2023-07-29T01:25:58;0.50;;;0.50;;
74963;SDS011;63521;51.900;4.748;2023-07-29T01:28:23;0.63;;;0.63;;
74963;SDS011;63521;51.900;4.748;2023-07-29T01:30:51;0.68;;;0.68;;
74963;SDS011;63521;51.900;4.748;2023-07-29T01:33:25;0.85;;;0.80;;
74963;SDS011;63521;51.900;4.748;2023-07-29T01:35:58;0.50;;;0.50;;
74963;SDS011;63521;51.900;4.748;2023-07-29T01:38:28;0.75;;;0.60;;
74963;SDS011;63521;51.900;4.748;2023-07-29T01:41:03;0.60;;;0.60;;
74963;SDS011;63521;51.900;4.748;2023-07-29T01:43:29;0.80;;;0.80;;
74963;SDS011;63521;51.900;4.748;2023-07-29T01:45:55;1.52;;;0.63;;
74963;SDS011;63521;51.900;4.748;2023-07-29T01:48:20;0.60;;;0.60;;
74963;SDS011;63521;51.900;4.748;2023-07-29T01:50:46;0.60;;;0.50;;
74963;SDS011;63521;51.900;4.748;2023-07-29T01:53:12;0.50;;;0.50;;
74963;SDS011;63521;51.900;4.748;2023-07-29T01:55:38;0.50;;;0.50;;
74963;SDS011;63521;51.900;4.748;2023-07-29T01:58:03;0.70;;;0.70;;
74963;SDS011;63521;51.900;4.748;2023-07-29T02:00:29;0.70;;;0.50;;
74963;SDS011;63521;51.900;4.748;2023-07-29T02:02:54;0.60;;;0.60;;
74963;SDS011;63521;51.900;4.748;2023-07-29T02:05:20;0.32;;;0.32;;
74963;SDS011;63521;51.900;4.748;2023-07-29T02:07:45;0.45;;;0.45;;
74963;SDS011;63521;51.900;4.748;2023-07-29T02:10:11;0.50;;;0.50;;
74963;SDS011;63521;51.900;4.748;2023-07-29T02:12:36;0.50;;;0.50;;
74963;SDS011;63521;51.900;4.748;2023-07-29T02:15:02;0.63;;;0.57;;
74963;SDS011;63521;51.900;4.748;2023-07-29T02:17:28;0.70;;;0.60;;
74963;SDS011;63521;51.900;4.748;2023-07-29T02:19:53;0.52;;;0.50;;
74963;SDS011;63521;51.900;4.748;2023-07-29T02:22:19;0.45;;;0.45;;
74963;SDS011;63521;51.900;4.748;2023-07-29T02:24:44;0.70;;;0.60;;
74963;SDS011;63521;51.900;4.748;2023-07-29T02:27:10;0.60;;;0.60;;
74963;SDS011;63521;51.900;4.748;2023-07-29T02:29:36;0.50;;;0.45;;
74963;SDS011;63521;51.900;4.748;2023-07-29T02:32:02;1.27;;;0.55;;
74963;SDS011;63521;51.900;4.748;2023-07-29T02:34:28;0.50;;;0.50;;
74963;SDS011;63521;51.900;4.748;2023-07-29T02:36:53;1.42;;;0.75;;
74963;SDS011;63521;51.900;4.748;2023-07-29T02:39:19;0.55;;;0.40;;
74963;SDS011;63521;51.900;4.748;2023-07-29T02:41:44;0.50;;;0.50;;
74963;SDS011;63521;51.900;4.748;2023-07-29T02:44:10;0.55;;;0.40;;
74963;SDS011;63521;51.900;4.748;2023-07-29T02:46:35;0.68;;;0.55;;
74963;SDS011;63521;51.900;4.748;2023-07-29T02:49:05;0.47;;;0.47;;
74963;SDS011;63521;51.900;4.748;2023-07-29T02:51:30;0.60;;;0.60;;
74963;SDS011;63521;51.900;4.748;2023-07-29T02:53:56;0.50;;;0.50;;
74963;SDS011;63521;51.900;4.748;2023-07-29T02:56:21;0.50;;;0.50;;
74963;SDS011;63521;51.900;4.748;2023-07-29T02:58:47;0.40;;;0.40;;
74963;SDS011;63521;51.900;4.748;2023-07-29T03:01:12;0.52;;;0.50;;
74963;SDS011;63521;51.900;4.748;2023-07-29T03:03:38;0.47;;;0.47;;
74963;SDS011;63521;51.900;4.748;2023-07-29T03:06:05;0.60;;;0.50;;
74963;SDS011;63521;51.900;4.748;2023-07-29T03:08:31;0.40;;;0.40;;
74963;SDS011;63521;51.900;4.748;2023-07-29T03:10:57;0.50;;;0.50;;
74963;SDS011;63521;51.900;4.748;2023-07-29T03:13:23;0.60;;;0.60;;
74963;SDS011;63521;51.900;4.748;2023-07-29T03:15:49;0.90;;;0.60;;
74963;SDS011;63521;51.900;4.748;2023-07-29T03:18:14;0.77;;;0.70;;
74963;SDS011;63521;51.900;4.748;2023-07-29T03:20:40;0.77;;;0.50;;
74963;SDS011;63521;51.900;4.748;2023-07-29T03:23:06;1.05;;;0.60;;
74963;SDS011;63521;51.900;4.748;2023-07-29T03:25:31;0.50;;;0.50;;
74963;SDS011;63521;51.900;4.748;2023-07-29T03:27:57;0.95;;;0.70;;
74963;SDS011;63521;51.900;4.748;2023-07-29T03:30:22;0.68;;;0.60;;
74963;SDS011;63521;51.900;4.748;2023-07-29T03:32:48;0.75;;;0.63;;
74963;SDS011;63521;51.900;4.748;2023-07-29T03:35:14;0.85;;;0.60;;
74963;SDS011;63521;51.900;4.748;2023-07-29T03:37:39;0.68;;;0.50;;
74963;SDS011;63521;51.900;4.748;2023-07-29T03:40:05;0.63;;;0.63;;
74963;SDS011;63521;51.900;4.748;2023-07-29T03:42:31;1.27;;;0.50;;
74963;SDS011;63521;51.900;4.748;2023-07-29T03:44:57;1.10;;;0.60;;
74963;SDS011;63521;51.900;4.748;2023-07-29T03:47:22;0.70;;;0.60;;
74963;SDS011;63521;51.900;4.748;2023-07-29T03:49:47;0.98;;;0.80;;
74963;SDS011;63521;51.900;4.748;2023-07-29T03:52:13;0.75;;;0.60;;
74963;SDS011;63521;51.900;4.748;2023-07-29T03:54:39;0.70;;;0.52;;
74963;SDS011;63521;51.900;4.748;2023-07-29T03:57:04;0.55;;;0.55;;
74963;SDS011;63521;51.900;4.748;2023-07-29T03:59:30;1.02;;;0.55;;
74963;SDS011;63521;51.900;4.748;2023-07-29T04:01:55;1.02;;;0.50;;
74963;SDS011;63521;51.900;4.748;2023-07-29T04:04:20;0.60;;;0.60;;
74963;SDS011;63521;51.900;4.748;2023-07-29T04:06:46;0.70;;;0.60;;
74963;SDS011;63521;51.900;4.748;2023-07-29T04:09:12;0.65;;;0.50;;
74963;SDS011;63521;51.900;4.748;2023-07-29T04:11:37;0.70;;;0.60;;
74963;SDS011;63521;51.900;4.748;2023-07-29T04:14:03;0.50;;;0.50;;
74963;SDS011;63521;51.900;4.748;2023-07-29T04:16:28;0.70;;;0.70;;
74963;SDS011;63521;51.900;4.748;2023-07-29T04:18:54;0.90;;;0.82;;
74963;SDS011;63521;51.900;4.748;2023-07-29T04:21:19;1.15;;;1.00;;
74963;SDS011;63521;51.900;4.748;2023-07-29T04:23:44;1.25;;;0.73;;
74963;SDS011;63521;51.900;4.748;2023-07-29T04:26:10;0.38;;;0.38;;
74963;SDS011;63521;51.900;4.748;2023-07-29T04:28:35;2.17;;;0.90;;
74963;SDS011;63521;51.900;4.748;2023-07-29T04:31:01;0.40;;;0.40;;
74963;SDS011;63521;51.900;4.748;2023-07-29T04:33:27;0.68;;;0.60;;
74963;SDS011;63521;51.900;4.748;2023-07-29T04:35:53;1.02;;;0.75;;
74963;SDS011;63521;51.900;4.748;2023-07-29T04:38:19;0.70;;;0.70;;
74963;SDS011;63521;51.900;4.748;2023-07-29T04:40:44;0.93;;;0.60;;
74963;SDS011;63521;51.900;4.748;2023-07-29T04:43:10;0.60;;;0.60;;
74963;SDS011;63521;51.900;4.748;2023-07-29T04:45:35;0.73;;;0.63;;
74963;SDS011;63521;51.900;4.748;2023-07-29T04:48:01;1.25;;;0.60;;
74963;SDS011;63521;51.900;4.748;2023-07-29T04:50:26;0.68;;;0.68;;
74963;SDS011;63521;51.900;4.748;2023-07-29T04:52:51;0.82;;;0.73;;
74963;SDS011;63521;51.900;4.748;2023-07-29T04:55:18;1.08;;;0.60;;
74963;SDS011;63521;51.900;4.748;2023-07-29T04:57:43;1.55;;;0.90;;
74963;SDS011;63521;51.900;4.748;2023-07-29T05:00:09;1.05;;;0.70;;
74963;SDS011;63521;51.900;4.748;2023-07-29T05:02:35;1.15;;;0.77;;
74963;SDS011;63521;51.900;4.748;2023-07-29T05:05:00;1.65;;;0.80;;
74963;SDS011;63521;51.900;4.748;2023-07-29T05:07:25;1.38;;;0.80;;
74963;SDS011;63521;51.900;4.748;2023-07-29T05:09:51;0.73;;;0.70;;
74963;SDS011;63521;51.900;4.748;2023-07-29T05:12:16;1.23;;;0.82;;
74963;SDS011;63521;51.900;4.748;2023-07-29T05:14:41;0.60;;;0.60;;
74963;SDS011;63521;51.900;4.748;2023-07-29T05:17:07;0.90;;;0.80;;
74963;SDS011;63521;51.900;4.748;2023-07-29T05:19:32;1.30;;;1.10;;
74963;SDS011;63521;51.900;4.748;2023-07-29T05:21:58;0.77;;;0.60;;
74963;SDS011;63521;51.900;4.748;2023-07-29T05:24:23;1.08;;;0.75;;
74963;SDS011;63521;51.900;4.748;2023-07-29T05:26:49;0.70;;;0.70;;
74963;SDS011;63521;51.900;4.748;2023-07-29T05:29:14;1.02;;;0.93;;
74963;SDS011;63521;51.900;4.748;2023-07-29T05:31:40;1.85;;;1.17;;
74963;SDS011;63521;51.900;4.748;2023-07-29T05:34:05;1.23;;;1.00;;
74963;SDS011;63521;51.900;4.748;2023-07-29T05:36:30;1.55;;;0.80;;
74963;SDS011;63521;51.900;4.748;2023-07-29T05:38:56;2.42;;;1.25;;
74963;SDS011;63521;51.900;4.748;2023-07-29T05:41:21;1.48;;;0.95;;
74963;SDS011;63521;51.900;4.748;2023-07-29T05:44:18;3.15;;;1.20;;
74963;SDS011;63521;51.900;4.748;2023-07-29T05:48:00;1.67;;;0.73;;
74963;SDS011;63521;51.900;4.748;2023-07-29T05:50:25;0.85;;;0.70;;
74963;SDS011;63521;51.900;4.748;2023-07-29T05:52:51;0.73;;;0.73;;
74963;SDS011;63521;51.900;4.748;2023-07-29T05:55:16;1.00;;;0.80;;
74963;SDS011;63521;51.900;4.748;2023-07-29T05:57:43;0.82;;;0.80;;
74963;SDS011;63521;51.900;4.748;2023-07-29T06:00:49;0.85;;;0.73;;
74963;SDS011;63521;51.900;4.748;2023-07-29T06:03:14;1.95;;;0.80;;
74963;SDS011;63521;51.900;4.748;2023-07-29T06:05:40;1.02;;;0.82;;
74963;SDS011;63521;51.900;4.748;2023-07-29T06:08:06;2.50;;;0.80;;
74963;SDS011;63521;51.900;4.748;2023-07-29T06:10:33;1.10;;;0.80;;
74963;SDS011;63521;51.900;4.748;2023-07-29T06:12:59;1.67;;;0.95;;
74963;SDS011;63521;51.900;4.748;2023-07-29T06:15:24;1.08;;;0.95;;
74963;SDS011;63521;51.900;4.748;2023-07-29T06:17:49;2.38;;;1.00;;
74963;SDS011;63521;51.900;4.748;2023-07-29T06:20:15;2.80;;;1.08;;
74963;SDS011;63521;51.900;4.748;2023-07-29T06:22:40;1.13;;;1.00;;
74963;SDS011;63521;51.900;4.748;2023-07-29T06:25:06;1.60;;;0.80;;
74963;SDS011;63521;51.900;4.748;2023-07-29T06:27:32;1.10;;;1.00;;
74963;SDS011;63521;51.900;4.748;2023-07-29T06:29:57;1.92;;;0.93;;
74963;SDS011;63521;51.900;4.748;2023-07-29T06:32:22;1.20;;;0.95;;
74963;SDS011;63521;51.900;4.748;2023-07-29T06:34:48;1.50;;;0.90;;
74963;SDS011;63521;51.900;4.748;2023-07-29T06:37:13;1.38;;;1.08;;
74963;SDS011;63521;51.900;4.748;2023-07-29T06:39:39;1.80;;;1.15;;
74963;SDS011;63521;51.900;4.748;2023-07-29T06:42:04;1.55;;;1.00;;
74963;SDS011;63521;51.900;4.748;2023-07-29T06:44:29;1.33;;;1.05;;
74963;SDS011;63521;51.900;4.748;2023-07-29T06:46:55;1.27;;;0.77;;
74963;SDS011;63521;51.900;4.748;2023-07-29T06:49:20;1.00;;;0.90;;
74963;SDS011;63521;51.900;4.748;2023-07-29T06:51:45;0.82;;;0.77;;
74963;SDS011;63521;51.900;4.748;2023-07-29T06:54:11;1.95;;;1.00;;
74963;SDS011;63521;51.900;4.748;2023-07-29T06:56:36;1.13;;;0.90;;
74963;SDS011;63521;51.900;4.748;2023-07-29T06:59:02;1.35;;;0.90;;
74963;SDS011;63521;51.900;4.748;2023-07-29T07:01:27;1.45;;;1.35;;
74963;SDS011;63521;51.900;4.748;2023-07-29T07:03:53;0.93;;;0.90;;
74963;SDS011;63521;51.900;4.748;2023-07-29T07:06:20;1.05;;;0.93;;
74963;SDS011;63521;51.900;4.748;2023-07-29T07:08:46;1.65;;;1.20;;
74963;SDS011;63521;51.900;4.748;2023-07-29T07:11:12;1.17;;;1.10;;
74963;SDS011;63521;51.900;4.748;2023-07-29T07:13:37;2.20;;;1.20;;
74963;SDS011;63521;51.900;4.748;2023-07-29T07:16:03;0.95;;;0.88;;
74963;SDS011;63521;51.900;4.748;2023-07-29T07:18:28;1.52;;;1.30;;
74963;SDS011;63521;51.900;4.748;2023-07-29T07:20:54;2.45;;;1.10;;
74963;SDS011;63521;51.900;4.748;2023-07-29T07:23:19;0.85;;;0.85;;
74963;SDS011;63521;51.900;4.748;2023-07-29T07:25:44;1.33;;;1.20;;
74963;SDS011;63521;51.900;4.748;2023-07-29T07:28:11;1.38;;;1.20;;
74963;SDS011;63521;51.900;4.748;2023-07-29T07:30:42;1.52;;;1.15;;
74963;SDS011;63521;51.900;4.748;2023-07-29T07:33:07;4.63;;;1.38;;
74963;SDS011;63521;51.900;4.748;2023-07-29T07:35:33;1.08;;;1.00;;
74963;SDS011;63521;51.900;4.748;2023-07-29T07:37:58;1.77;;;1.20;;
74963;SDS011;63521;51.900;4.748;2023-07-29T07:40:26;2.00;;;1.40;;
74963;SDS011;63521;51.900;4.748;2023-07-29T07:42:52;2.45;;;1.33;;
74963;SDS011;63521;51.900;4.748;2023-07-29T07:45:17;2.10;;;1.20;;
74963;SDS011;63521;51.900;4.748;2023-07-29T07:47:43;2.40;;;1.30;;
74963;SDS011;63521;51.900;4.748;2023-07-29T07:50:08;1.50;;;1.02;;
74963;SDS011;63521;51.900;4.748;2023-07-29T07:52:34;1.42;;;1.33;;
74963;SDS011;63521;51.900;4.748;2023-07-29T07:54:59;1.38;;;1.27;;
74963;SDS011;63521;51.900;4.748;2023-07-29T07:57:24;1.80;;;1.52;;
74963;SDS011;63521;51.900;4.748;2023-07-29T07:59:50;1.63;;;1.33;;
74963;SDS011;63521;51.900;4.748;2023-07-29T08:02:17;1.38;;;1.17;;
74963;SDS011;63521;51.900;4.748;2023-07-29T08:04:43;1.70;;;1.52;;
74963;SDS011;63521;51.900;4.748;2023-07-29T08:07:08;1.65;;;1.30;;
74963;SDS011;63521;51.900;4.748;2023-07-29T08:09:34;4.40;;;2.40;;
74963;SDS011;63521;51.900;4.748;2023-07-29T08:11:59;4.50;;;3.00;;
74963;SDS011;63521;51.900;4.748;2023-07-29T08:14:24;5.22;;;3.17;;
74963;SDS011;63521;51.900;4.748;2023-07-29T08:16:51;4.35;;;2.83;;
74963;SDS011;63521;51.900;4.748;2023-07-29T08:19:16;8.07;;;3.58;;
74963;SDS011;63521;51.900;4.748;2023-07-29T08:21:42;5.45;;;3.38;;
74963;SDS011;63521;51.900;4.748;2023-07-29T08:24:07;4.60;;;2.90;;
74963;SDS011;63521;51.900;4.748;2023-07-29T08:26:33;10.35;;;3.72;;
74963;SDS011;63521;51.900;4.748;2023-07-29T08:28:58;7.00;;;3.22;;
74963;SDS011;63521;51.900;4.748;2023-07-29T08:31:23;5.25;;;2.90;;
74963;SDS011;63521;51.900;4.748;2023-07-29T08:33:49;5.35;;;3.05;;
74963;SDS011;63521;51.900;4.748;2023-07-29T08:36:14;7.20;;;2.78;;
74963;SDS011;63521;51.900;4.748;2023-07-29T08:38:40;5.25;;;2.85;;
74963;SDS011;63521;51.900;4.748;2023-07-29T08:44:09;3.40;;;2.63;;
74963;SDS011;63521;51.900;4.748;2023-07-29T08:46:38;6.53;;;2.40;;
74963;SDS011;63521;51.900;4.748;2023-07-29T08:49:03;3.92;;;2.20;;
74963;SDS011;63521;51.900;4.748;2023-07-29T08:51:29;6.53;;;2.58;;
74963;SDS011;63521;51.900;4.748;2023-07-29T08:53:56;2.83;;;2.10;;
74963;SDS011;63521;51.900;4.748;2023-07-29T08:56:22;2.50;;;2.30;;
74963;SDS011;63521;51.900;4.748;2023-07-29T08:58:47;3.38;;;2.00;;
74963;SDS011;63521;51.900;4.748;2023-07-29T09:01:13;3.55;;;2.20;;
74963;SDS011;63521;51.900;4.748;2023-07-29T09:03:40;3.10;;;2.05;;
74963;SDS011;63521;51.900;4.748;2023-07-29T09:06:06;2.30;;;2.10;;
74963;SDS011;63521;51.900;4.748;2023-07-29T09:08:33;2.88;;;2.00;;
74963;SDS011;63521;51.900;4.748;2023-07-29T09:10:58;2.67;;;2.17;;
74963;SDS011;63521;51.900;4.748;2023-07-29T09:13:24;2.22;;;2.00;;
74963;SDS011;63521;51.900;4.748;2023-07-29T09:15:53;2.08;;;1.92;;
74963;SDS011;63521;51.900;4.748;2023-07-29T09:18:19;2.05;;;1.90;;
74963;SDS011;63521;51.900;4.748;2023-07-29T09:20:48;3.10;;;1.73;;
74963;SDS011;63521;51.900;4.748;2023-07-29T09:23:15;2.20;;;1.80;;
74963;SDS011;63521;51.900;4.748;2023-07-29T09:25:40;2.47;;;1.92;;
74963;SDS011;63521;51.900;4.748;2023-07-29T09:28:13;2.00;;;1.60;;
74963;SDS011;63521;51.900;4.748;2023-07-29T09:30:39;2.55;;;2.10;;
74963;SDS011;63521;51.900;4.748;2023-07-29T09:33:05;1.67;;;1.58;;
74963;SDS011;63521;51.900;4.748;2023-07-29T09:35:32;1.65;;;1.55;;
74963;SDS011;63521;51.900;4.748;2023-07-29T09:37:59;1.85;;;1.75;;
74963;SDS011;63521;51.900;4.748;2023-07-29T09:40:24;2.75;;;1.52;;
74963;SDS011;63521;51.900;4.748;2023-07-29T09:42:50;3.17;;;2.08;;
74963;SDS011;63521;51.900;4.748;2023-07-29T09:45:23;2.60;;;1.50;;
74963;SDS011;63521;51.900;4.748;2023-07-29T09:47:49;1.90;;;1.80;;
74963;SDS011;63521;51.900;4.748;2023-07-29T09:50:15;1.55;;;1.45;;
74963;SDS011;63521;51.900;4.748;2023-07-29T09:52:41;1.63;;;1.40;;
74963;SDS011;63521;51.900;4.748;2023-07-29T09:55:06;1.55;;;1.45;;
74963;SDS011;63521;51.900;4.748;2023-07-29T09:57:32;2.25;;;1.80;;
74963;SDS011;63521;51.900;4.748;2023-07-29T09:59:58;1.75;;;1.45;;
74963;SDS011;63521;51.900;4.748;2023-07-29T10:02:24;2.30;;;1.60;;
74963;SDS011;63521;51.900;4.748;2023-07-29T10:04:52;2.33;;;1.70;;
74963;SDS011;63521;51.900;4.748;2023-07-29T10:07:18;1.90;;;1.38;;
74963;SDS011;63521;51.900;4.748;2023-07-29T10:09:43;1.75;;;1.42;;
74963;SDS011;63521;51.900;4.748;2023-07-29T10:12:10;1.52;;;1.40;;
74963;SDS011;63521;51.900;4.748;2023-07-29T10:14:36;1.70;;;1.50;;
74963;SDS011;63521;51.900;4.748;2023-07-29T10:17:03;1.65;;;1.25;;
74963;SDS011;63521;51.900;4.748;2023-07-29T10:19:30;1.60;;;1.45;;
74963;SDS011;63521;51.900;4.748;2023-07-29T10:21:55;1.80;;;1.52;;
74963;SDS011;63521;51.900;4.748;2023-07-29T10:24:24;2.03;;;1.77;;
74963;SDS011;63521;51.900;4.748;2023-07-29T10:26:54;3.50;;;1.60;;
74963;SDS011;63521;51.900;4.748;2023-07-29T10:29:22;1.10;;;1.10;;
74963;SDS011;63521;51.900;4.748;2023-07-29T10:31:48;2.33;;;1.10;;
74963;SDS011;63521;51.900;4.748;2023-07-29T10:34:17;1.40;;;1.30;;
74963;SDS011;63521;51.900;4.748;2023-07-29T10:36:44;1.13;;;1.02;;
74963;SDS011;63521;51.900;4.748;2023-07-29T10:39:10;1.38;;;1.20;;
74963;SDS011;63521;51.900;4.748;2023-07-29T10:41:55;1.20;;;1.13;;
74963;SDS011;63521;51.900;4.748;2023-07-29T10:47:15;2.08;;;1.30;;
74963;SDS011;63521;51.900;4.748;2023-07-29T10:49:42;1.85;;;1.48;;
74963;SDS011;63521;51.900;4.748;2023-07-29T10:52:07;1.88;;;1.40;;
74963;SDS011;63521;51.900;4.748;2023-07-29T10:54:42;1.55;;;1.30;;
74963;SDS011;63521;51.900;4.748;2023-07-29T10:57:07;1.95;;;1.40;;
74963;SDS011;63521;51.900;4.748;2023-07-29T10:59:39;1.50;;;1.40;;
74963;SDS011;63521;51.900;4.748;2023-07-29T11:02:11;2.30;;;1.30;;
74963;SDS011;63521;51.900;4.748;2023-07-29T11:04:46;2.10;;;1.40;;
74963;SDS011;63521;51.900;4.748;2023-07-29T11:17:38;1.50;;;1.40;;
74963;SDS011;63521;51.900;4.748;2023-07-29T11:20:11;3.05;;;1.45;;
74963;SDS011;63521;51.900;4.748;2023-07-29T11:22:37;2.15;;;1.40;;
74963;SDS011;63521;51.900;4.748;2023-07-29T11:25:03;1.63;;;1.45;;
74963;SDS011;63521;51.900;4.748;2023-07-29T11:27:30;2.65;;;1.85;;
74963;SDS011;63521;51.900;4.748;2023-07-29T11:29:59;1.83;;;1.30;;
74963;SDS011;63521;51.900;4.748;2023-07-29T11:32:25;1.42;;;1.27;;
74963;SDS011;63521;51.900;4.748;2023-07-29T11:34:51;1.40;;;1.30;;
74963;SDS011;63521;51.900;4.748;2023-07-29T11:37:17;1.38;;;1.23;;
74963;SDS011;63521;51.900;4.748;2023-07-29T11:39:43;2.22;;;1.38;;
74963;SDS011;63521;51.900;4.748;2023-07-29T11:42:13;2.42;;;1.40;;
74963;SDS011;63521;51.900;4.748;2023-07-29T11:44:39;2.22;;;1.40;;
74963;SDS011;63521;51.900;4.748;2023-07-29T11:47:08;1.92;;;1.55;;
74963;SDS011;63521;51.900;4.748;2023-07-29T11:49:34;1.38;;;1.27;;
74963;SDS011;63521;51.900;4.748;2023-07-29T11:52:00;1.40;;;1.25;;
74963;SDS011;63521;51.900;4.748;2023-07-29T11:54:26;1.60;;;1.30;;
74963;SDS011;63521;51.900;4.748;2023-07-29T11:56:52;2.72;;;1.40;;
74963;SDS011;63521;51.900;4.748;2023-07-29T11:59:17;1.40;;;1.30;;
74963;SDS011;63521;51.900;4.748;2023-07-29T12:01:42;2.28;;;1.30;;
74963;SDS011;63521;51.900;4.748;2023-07-29T12:04:08;5.72;;;1.70;;
74963;SDS011;63521;51.900;4.748;2023-07-29T12:06:34;1.55;;;1.40;;
74963;SDS011;63521;51.900;4.748;2023-07-29T12:08:59;1.45;;;1.35;;
74963;SDS011;63521;51.900;4.748;2023-07-29T12:11:25;1.60;;;1.20;;
74963;SDS011;63521;51.900;4.748;2023-07-29T12:13:52;1.33;;;1.23;;
74963;SDS011;63521;51.900;4.748;2023-07-29T12:16:18;1.58;;;1.40;;
74963;SDS011;63521;51.900;4.748;2023-07-29T12:18:44;1.65;;;1.33;;
74963;SDS011;63521;51.900;4.748;2023-07-29T12:21:09;1.42;;;1.33;;
74963;SDS011;63521;51.900;4.748;2023-07-29T12:23:35;1.75;;;1.27;;
74963;SDS011;63521;51.900;4.748;2023-07-29T12:26:01;1.30;;;1.20;;
74963;SDS011;63521;51.900;4.748;2023-07-29T12:28:26;2.42;;;1.35;;
74963;SDS011;63521;51.900;4.748;2023-07-29T12:30:55;1.75;;;1.23;;
74963;SDS011;63521;51.900;4.748;2023-07-29T12:33:36;1.73;;;1.63;;
74963;SDS011;63521;51.900;4.748;2023-07-29T12:36:04;1.88;;;1.42;;
74963;SDS011;63521;51.900;4.748;2023-07-29T12:38:29;1.25;;;1.20;;
74963;SDS011;63521;51.900;4.748;2023-07-29T12:40:55;2.47;;;1.75;;
74963;SDS011;63521;51.900;4.748;2023-07-29T12:43:21;1.50;;;1.40;;
74963;SDS011;63521;51.900;4.748;2023-07-29T12:45:46;3.92;;;1.80;;
74963;SDS011;63521;51.900;4.748;2023-07-29T12:48:14;1.55;;;1.35;;
74963;SDS011;63521;51.900;4.748;2023-07-29T12:50:40;1.55;;;1.45;;
74963;SDS011;63521;51.900;4.748;2023-07-29T12:53:06;1.75;;;1.52;;
74963;SDS011;63521;51.900;4.748;2023-07-29T12:55:45;1.67;;;1.58;;
74963;SDS011;63521;51.900;4.748;2023-07-29T12:58:13;1.45;;;1.35;;
74963;SDS011;63521;51.900;4.748;2023-07-29T13:00:38;1.40;;;1.30;;
74963;SDS011;63521;51.900;4.748;2023-07-29T13:03:04;2.03;;;1.50;;
74963;SDS011;63521;51.900;4.748;2023-07-29T13:05:30;1.70;;;1.60;;
74963;SDS011;63521;51.900;4.748;2023-07-29T13:07:56;1.60;;;1.50;;
74963;SDS011;63521;51.900;4.748;2023-07-29T13:10:21;1.40;;;1.30;;
74963;SDS011;63521;51.900;4.748;2023-07-29T13:12:47;1.60;;;1.50;;
74963;SDS011;63521;51.900;4.748;2023-07-29T13:15:13;1.42;;;1.33;;
74963;SDS011;63521;51.900;4.748;2023-07-29T13:17:38;1.50;;;1.40;;
74963;SDS011;63521;51.900;4.748;2023-07-29T13:20:04;1.92;;;1.42;;
74963;SDS011;63521;51.900;4.748;2023-07-29T13:22:30;1.40;;;1.30;;
74963;SDS011;63521;51.900;4.748;2023-07-29T13:24:56;2.25;;;1.60;;
74963;SDS011;63521;51.900;4.748;2023-07-29T13:27:21;1.60;;;1.48;;
74963;SDS011;63521;51.900;4.748;2023-07-29T13:29:47;1.38;;;1.27;;
74963;SDS011;63521;51.900;4.748;2023-07-29T13:32:12;1.52;;;1.40;;
74963;SDS011;63521;51.900;4.748;2023-07-29T13:34:38;2.55;;;1.40;;
74963;SDS011;63521;51.900;4.748;2023-07-29T13:37:05;1.80;;;1.40;;
74963;SDS011;63521;51.900;4.748;2023-07-29T13:39:31;1.40;;;1.27;;
74963;SDS011;63521;51.900;4.748;2023-07-29T13:41:56;4.30;;;1.58;;
74963;SDS011;63521;51.900;4.748;2023-07-29T13:44:21;2.30;;;1.33;;
74963;SDS011;63521;51.900;4.748;2023-07-29T13:46:47;1.98;;;1.20;;
74963;SDS011;63521;51.900;4.748;2023-07-29T13:49:12;3.17;;;1.63;;
74963;SDS011;63521;51.900;4.748;2023-07-29T13:51:38;2.00;;;1.30;;
74963;SDS011;63521;51.900;4.748;2023-07-29T13:54:03;1.40;;;1.30;;
74963;SDS011;63521;51.900;4.748;2023-07-29T13:56:28;2.33;;;1.40;;
74963;SDS011;63521;51.900;4.748;2023-07-29T13:58:54;1.50;;;1.40;;
74963;SDS011;63521;51.900;4.748;2023-07-29T14:01:19;1.95;;;1.30;;
74963;SDS011;63521;51.900;4.748;2023-07-29T14:03:44;1.40;;;1.13;;
74963;SDS011;63521;51.900;4.748;2023-07-29T14:06:10;2.17;;;1.30;;
74963;SDS011;63521;51.900;4.748;2023-07-29T14:08:35;1.98;;;1.25;;
74963;SDS011;63521;51.900;4.748;2023-07-29T14:11:01;1.55;;;1.10;;
74963;SDS011;63521;51.900;4.748;2023-07-29T14:13:26;2.58;;;1.30;;
74963;SDS011;63521;51.900;4.748;2023-07-29T14:15:51;1.40;;;1.30;;
74963;SDS011;63521;51.900;4.748;2023-07-29T14:18:17;2.20;;;1.10;;
74963;SDS011;63521;51.900;4.748;2023-07-29T14:20:42;1.50;;;1.40;;
74963;SDS011;63521;51.900;4.748;2023-07-29T14:23:08;4.03;;;1.75;;
74963;SDS011;63521;51.900;4.748;2023-07-29T14:25:33;1.65;;;1.33;;
74963;SDS011;63521;51.900;4.748;2023-07-29T14:27:59;1.80;;;1.30;;
74963;SDS011;63521;51.900;4.748;2023-07-29T14:30:24;1.77;;;1.30;;
74963;SDS011;63521;51.900;4.748;2023-07-29T14:32:49;2.47;;;1.23;;
74963;SDS011;63521;51.900;4.748;2023-07-29T14:35:15;1.37;;;1.20;;
74963;SDS011;63521;51.900;4.748;2023-07-29T14:37:40;1.65;;;1.30;;
74963;SDS011;63521;51.900;4.748;2023-07-29T14:40:05;1.85;;;1.40;;
74963;SDS011;63521;51.900;4.748;2023-07-29T14:42:31;1.42;;;1.15;;
74963;SDS011;63521;51.900;4.748;2023-07-29T14:44:57;1.45;;;1.30;;
74963;SDS011;63521;51.900;4.748;2023-07-29T14:47:22;1.55;;;1.30;;
74963;SDS011;63521;51.900;4.748;2023-07-29T14:49:48;1.35;;;1.25;;
74963;SDS011;63521;51.900;4.748;2023-07-29T14:52:13;2.03;;;1.73;;
74963;SDS011;63521;51.900;4.748;2023-07-29T14:54:39;1.80;;;1.20;;
74963;SDS011;63521;51.900;4.748;2023-07-29T14:57:05;1.73;;;1.20;;
74963;SDS011;63521;51.900;4.748;2023-07-29T14:59:31;1.30;;;1.15;;
74963;SDS011;63521;51.900;4.748;2023-07-29T15:01:57;1.30;;;1.20;;
74963;SDS011;63521;51.900;4.748;2023-07-29T15:04:22;1.25;;;1.15;;